Cajuru, Brazil
Current Conditions -  °F | °C
As of 6:00 PM on Thursday 23 Oct 2014 (Local Time) from SBRP Reporting Station
Few Clouds Few Clouds  
Wind Chill: 91°   Ceiling: Unl
Heat Index: 91°   Visibility: 6mi
Dew Point: 57°   Wind: 9mph
Humidity: 31%   Direction: 290°WNW
Pressure: 29.88"   Gusts: NA
Location:  21.28°S, 47.3°W
Report Text: SBRP 232000Z 29008KT 9999 FEW040 FEW045TCU 33/14 Q1012
Loading
Personal Weather Stations






























Interactive Weather Map
Tropical Storm Tracking
New forecast layout! Learn more

10-Day Weather Forecast

Advertisements
Track Severe Weather on mobile